Time;durP1;ratioP1;P1;durP2;ratioP2;P2;SDS_P1;SDS_P2;PMS_P1;PMS_P2;Temp;Humidity;BMP_temperature;BMP_pressure;BME280_temperature;BME280_humidity;BME280_pressure;Samples;Min_cycle;Max_cycle;Signal;HPM_P1;HPM_P2
2023/10/10 00:00:49;;;;;;;0.00;0.00;;;;;;;15.58;100.00;102057.56;5094233;28;20071;-42
2023/10/10 00:03:17;;;;;;;0.00;0.00;;;;;;;15.55;100.00;102063.34;5094538;28;20043;-45
2023/10/10 00:05:43;;;;;;;0.00;0.00;;;;;;;15.57;100.00;102071.31;5112314;28;20074;-46
2023/10/10 00:08:10;;;;;;;0.00;0.00;;;;;;;15.58;100.00;102062.97;5093594;28;20040;-40
2023/10/10 00:10:43;;;;;;;0.00;0.00;;;;;;;15.55;100.00;102068.78;5101902;28;20031;-43
2023/10/10 00:13:11;;;;;;;0.00;0.00;;;;;;;15.53;100.00;102068.16;5112555;28;20023;-44
2023/10/10 00:15:39;;;;;;;0.00;0.00;;;;;;;15.50;100.00;102063.06;5112266;28;20042;-40
2023/10/10 00:18:10;;;;;;;;;;;;;;;15.48;100.00;102057.00;5112579;28;20046;-45
2023/10/10 00:20:43;;;;;;;0.00;0.00;;;;;;;15.45;100.00;102057.34;5109344;28;20384;-43
2023/10/10 00:23:16;;;;;;;0.00;0.00;;;;;;;15.46;100.00;102058.22;5112192;28;20103;-42
2023/10/10 00:25:42;;;;;;;0.00;0.00;;;;;;;15.41;100.00;102056.03;5091675;28;20031;-46
2023/10/10 00:28:18;;;;;;;0.00;0.00;;;;;;;15.38;100.00;102051.00;5110410;28;20024;-44
2023/10/10 00:30:47;;;;;;;0.00;0.00;;;;;;;15.35;100.00;102048.66;5112263;28;20078;-44
2023/10/10 00:33:16;;;;;;;0.00;0.00;;;;;;;15.33;100.00;102045.28;5112167;28;20026;-46
2023/10/10 00:35:46;;;;;;;0.00;0.00;;;;;;;15.32;100.00;102046.28;5111905;28;20381;-44
2023/10/10 00:38:17;;;;;;;0.00;0.00;;;;;;;15.32;100.00;102051.72;5110871;28;20028;-45
2023/10/10 00:40:46;;;;;;;0.00;0.00;;;;;;;15.31;100.00;102050.03;5111670;28;20477;-43
2023/10/10 00:43:13;;;;;;;0.00;0.00;;;;;;;15.29;100.00;102049.38;5112353;28;20062;-44
2023/10/10 00:45:39;;;;;;;0.00;0.00;;;;;;;15.28;100.00;102047.69;5111425;28;20053;-46
2023/10/10 00:48:05;;;;;;;0.00;0.00;;;;;;;15.28;100.00;102045.81;5093702;28;20028;-45
2023/10/10 00:50:34;;;;;;;0.00;0.00;;;;;;;15.28;100.00;102040.41;5111923;28;20350;-42
2023/10/10 00:53:00;;;;;;;0.00;0.00;;;;;;;15.28;100.00;102039.56;5111571;28;20027;-48
2023/10/10 00:55:26;;;;;;;0.00;0.00;;;;;;;15.27;100.00;102035.13;5111888;28;20020;-45
2023/10/10 00:57:58;;;;;;;0.00;0.00;;;;;;;15.27;100.00;102040.56;5091786;28;20314;-46
2023/10/10 01:00:25;;;;;;;0.00;0.00;;;;;;;15.27;100.00;102035.13;5111368;28;20028;-43
2023/10/10 01:02:51;;;;;;;0.00;0.00;;;;;;;15.28;100.00;102034.13;5111594;28;20052;-45
2023/10/10 01:05:24;;;;;;;0.00;0.00;;;;;;;15.27;100.00;102032.44;5111801;28;20072;-44
2023/10/10 01:07:51;;;;;;;0.00;0.00;;;;;;;15.25;100.00;102023.66;5110932;27;20378;-45
2023/10/10 01:10:17;;;;;;;0.00;0.00;;;;;;;15.21;100.00;102017.75;5111225;28;20027;-48
2023/10/10 01:12:46;;;;;;;0.00;0.00;;;;;;;15.26;100.00;102022.63;5110709;28;20019;-43
2023/10/10 01:15:16;;;;;;;0.00;0.00;;;;;;;15.28;100.00;102028.72;5110310;28;20525;-44
2023/10/10 01:17:45;;;;;;;0.00;0.00;;;;;;;15.32;100.00;102035.44;5109956;28;20053;-44
2023/10/10 01:22:47;;;;;;;0.00;0.00;;;;;;;15.31;100.00;102023.75;5110567;28;20040;-47
2023/10/10 01:28:05;;;;;;;0.00;0.00;;;;;;;15.35;100.00;102013.41;5107223;28;20131;-42
2023/10/10 01:33:16;;;;;;;0.00;0.00;;;;;;;15.37;100.00;102019.44;5110546;28;20439;-43
2023/10/10 01:35:42;;;;;;;0.00;0.00;;;;;;;15.38;100.00;102023.88;5109807;28;20062;-47
2023/10/10 01:38:41;;;;;;;0.00;0.00;;;;;;;15.38;100.00;102018.44;5109338;28;20116;-44
2023/10/10 01:41:21;;;;;;;0.00;0.00;;;;;;;15.37;100.00;102009.44;5085796;28;20036;-46
2023/10/10 01:43:47;;;;;;;0.00;0.00;;;;;;;15.37;100.00;102011.31;5110199;28;20122;-45
2023/10/10 01:46:27;;;;;;;0.00;0.00;;;;;;;15.37;100.00;102005.88;5110737;28;20126;-44
2023/10/10 01:48:55;;;;;;;0.00;0.00;;;;;;;15.36;100.00;102001.50;5108958;28;20077;-43
2023/10/10 01:51:24;;;;;;;0.00;0.00;;;;;;;15.36;100.00;102005.06;5110086;28;20019;-44
2023/10/10 01:53:52;;;;;;;0.00;0.00;;;;;;;15.35;100.00;101997.13;5110463;28;20497;-45
2023/10/10 01:56:17;;;;;;;0.00;0.00;;;;;;;15.36;100.00;101993.38;5111571;28;20035;-44
2023/10/10 01:58:43;;;;;;;0.00;0.00;;;;;;;15.37;100.00;101989.63;5108719;28;20016;-44
2023/10/10 02:01:16;;;;;;;0.00;0.00;;;;;;;15.36;100.00;101988.78;5110256;28;20114;-44
2023/10/10 02:03:43;;;;;;;0.00;0.00;;;;;;;15.36;100.00;101988.78;5089006;28;20067;-42
2023/10/10 02:06:13;;;;;;;0.00;0.00;;;;;;;15.36;100.00;101987.94;5090297;28;20035;-42
2023/10/10 02:08:39;;;;;;;0.00;0.00;;;;;;;15.37;100.00;101992.31;5088762;28;20020;-44
2023/10/10 02:11:06;;;;;;;0.00;0.00;;;;;;;15.35;100.00;101991.69;5089577;28;20021;-42
2023/10/10 02:13:33;;;;;;;0.00;0.00;;;;;;;15.34;100.00;101996.25;5090208;28;20038;-43
2023/10/10 02:16:00;;;;;;;0.00;0.00;;;;;;;15.34;100.00;101988.13;5091133;28;20107;-45
2023/10/10 02:18:44;;;;;;;0.00;0.00;;;;;;;15.33;100.00;101989.16;5082666;28;20051;-43
2023/10/10 02:21:16;;;;;;;0.00;0.00;;;;;;;15.34;100.00;101988.13;5090744;28;20114;-42
2023/10/10 02:23:44;;;;;;;0.00;0.00;;;;;;;15.32;100.00;101981.19;5091760;28;20055;-41
2023/10/10 02:26:43;;;;;;;0.00;0.00;;;;;;;15.32;100.00;101987.47;5094639;28;20025;-42
2023/10/10 02:32:21;;;;;;;0.00;0.00;;;;;;;15.28;100.00;101980.72;5032016;28;20084;-42
2023/10/10 02:35:00;;;;;;;0.00;0.00;;;;;;;15.28;100.00;101964.44;5088714;28;20131;-43
2023/10/10 02:43:19;;;;;;;0.00;0.00;;;;;;;15.25;100.00;101959.41;5053774;28;20037;-45
2023/10/10 02:45:45;;;;;;;0.00;0.00;;;;;;;15.22;100.00;101965.19;5092333;28;20062;-46
2023/10/10 02:48:20;;;;;;;0.00;0.00;;;;;;;15.20;100.00;101958.28;5093289;28;20024;-43
2023/10/10 02:50:45;;;;;;;0.00;0.00;;;;;;;15.21;100.00;101965.38;5093736;28;20436;-45
2023/10/10 02:53:12;;;;;;;0.00;0.00;;;;;;;15.18;100.00;101958.44;5093336;28;20028;-44
2023/10/10 02:55:41;;;;;;;0.00;0.00;;;;;;;15.13;100.00;101964.41;5093848;28;20110;-41
2023/10/10 02:58:20;;;;;;;0.00;0.00;;;;;;;15.13;100.00;101961.72;5093512;28;20039;-47
2023/10/10 03:00:49;;;;;;;0.00;0.00;;;;;;;15.08;100.00;101953.28;5093439;28;20142;-42
2023/10/10 03:03:21;;;;;;;0.00;0.00;;;;;;;15.05;100.00;101953.66;5110127;28;20111;-45
2023/10/10 03:05:54;;;;;;;0.00;0.00;;;;;;;15.04;100.00;101962.00;5113449;28;20030;-46
2023/10/10 03:11:00;;;;;;;0.00;0.00;;;;;;;15.01;100.00;101957.78;5113365;28;20043;-44
2023/10/10 03:13:36;;;;;;;0.00;0.00;;;;;;;14.93;100.00;101963.28;5113050;28;20032;-42
2023/10/10 03:16:40;;;;;;;0.00;0.00;;;;;;;14.95;100.00;101953.06;5113519;28;20035;-42
2023/10/10 03:21:43;;;;;;;0.00;0.00;;;;;;;14.93;100.00;101956.00;5113757;28;20047;-43
2023/10/10 03:24:20;;;;;;;0.00;0.00;;;;;;;14.91;100.00;101958.03;5097799;28;20462;-42
2023/10/10 03:29:21;;;;;;;0.00;0.00;;;;;;;14.81;100.00;101951.19;5113549;27;20176;-42
2023/10/10 03:31:49;;;;;;;0.00;0.00;;;;;;;14.78;100.00;101946.13;5098111;28;20080;-45
2023/10/10 03:37:02;;;;;;;0.00;0.00;;;;;;;14.71;100.00;101937.88;5113165;28;20071;-43
2023/10/10 03:39:53;;;;;;;0.00;0.00;;;;;;;14.69;100.00;101929.94;5094252;28;20032;-43
2023/10/10 05:23:51;;;;;;;0.00;0.00;;;;;;;14.24;100.00;101828.72;5101050;28;20043;-45
2023/10/10 05:26:19;;;;;;;0.00;0.00;;;;;;;14.26;100.00;101823.94;5104057;28;20019;-44
2023/10/10 05:28:45;;;;;;;0.00;0.00;;;;;;;14.28;100.00;101816.50;5122728;27;20039;-46
2023/10/10 05:31:12;;;;;;;0.00;0.00;;;;;;;14.30;100.00;101818.16;5117535;27;20165;-44
2023/10/10 05:33:37;;;;;;;0.00;0.00;;;;;;;14.30;100.00;101818.16;5110487;28;20477;-44
2023/10/10 05:36:06;;;;;;;0.00;0.00;;;;;;;14.31;100.00;101814.44;5111560;28;20036;-48
2023/10/10 05:38:39;;;;;;;0.00;0.00;;;;;;;14.36;100.00;101812.88;5093710;28;20117;-43
2023/10/10 05:41:06;;;;;;;0.00;0.00;;;;;;;14.34;100.00;101803.25;5116373;27;20028;-41
2023/10/10 05:43:35;;;;;;;0.00;0.00;;;;;;;14.34;100.00;101795.97;5093218;28;20028;-46
2023/10/10 05:46:03;;;;;;;0.00;0.00;;;;;;;14.37;100.00;101802.88;5110322;28;20059;-46
2023/10/10 05:48:31;;;;;;;0.00;0.00;;;;;;;14.37;100.00;101792.03;5110225;28;20108;-44
2023/10/10 05:50:57;;;;;;;0.00;0.00;;;;;;;14.35;100.00;101788.66;5109913;28;20032;-45
2023/10/10 05:53:24;;;;;;;0.00;0.00;;;;;;;14.35;100.00;101789.53;5102209;28;20027;-45
2023/10/10 05:55:53;;;;;;;0.00;0.00;;;;;;;14.35;100.00;101788.66;5103356;28;20126;-44
2023/10/10 05:58:19;;;;;;;0.00;0.00;;;;;;;14.34;100.00;101789.72;5111087;28;20076;-45
2023/10/10 06:00:48;;;;;;;0.00;0.00;;;;;;;14.35;100.00;101785.97;5113506;28;20036;-43
2023/10/10 06:03:14;;;;;;;0.00;0.00;;;;;;;14.34;100.00;101781.59;5113376;28;20043;-47
2023/10/10 06:05:45;;;;;;;0.00;0.00;;;;;;;14.32;100.00;101779.03;5112025;28;20027;-43
2023/10/10 06:08:12;;;;;;;0.00;0.00;;;;;;;14.35;100.00;101778.69;5110414;28;20492;-43
2023/10/10 06:10:38;;;;;;;0.00;0.00;;;;;;;14.38;100.00;101780.19;5110278;27;20035;-42
2023/10/10 06:13:03;;;;;;;0.00;0.00;;;;;;;14.42;100.00;101786.91;5113570;28;20077;-44
2023/10/10 06:15:33;;;;;;;0.00;0.00;;;;;;;14.43;100.00;101786.75;5114142;28;20106;-46
2023/10/10 06:18:08;;;;;;;0.00;0.00;;;;;;;14.45;100.00;101786.53;5114598;28;20031;-45
2023/10/10 06:20:40;;;;;;;0.00;0.00;;;;;;;14.45;100.00;101781.13;5115653;28;20367;-44
2023/10/10 06:23:06;;;;;;;0.00;0.00;;;;;;;14.48;100.00;101780.75;5115629;28;20028;-44
2023/10/10 06:25:32;;;;;;;0.00;0.00;;;;;;;14.53;100.00;101785.66;5114037;28;20380;-43
2023/10/10 06:28:00;;;;;;;0.00;0.00;;;;;;;14.55;100.00;101776.31;5114818;28;20056;-45
2023/10/10 06:30:26;;;;;;;0.00;0.00;;;;;;;14.58;100.00;101778.66;5115816;28;20471;-48
2023/10/10 06:32:58;;;;;;;0.00;0.00;;;;;;;14.60;100.00;101773.91;5112971;28;20026;-47
2023/10/10 06:37:53;;;;;;;0.00;0.00;;;;;;;14.59;100.00;101785.78;5112973;27;20036;-45
2023/10/10 06:40:30;;;;;;;;;;;;;;;14.66;100.00;101783.97;5103631;28;20730;-45
2023/10/10 06:42:56;;;;;;;0.00;0.00;;;;;;;14.75;100.00;101783.91;5114786;28;19999;-44
2023/10/10 06:45:26;;;;;;;0.00;0.00;;;;;;;14.79;100.00;101779.78;5114816;28;20032;-48
2023/10/10 06:47:54;;;;;;;0.00;0.00;;;;;;;14.80;100.00;101790.47;5116230;28;20457;-49
2023/10/10 06:50:21;;;;;;;0.00;0.00;;;;;;;14.82;100.00;101784.84;5114671;28;20603;-47
2023/10/10 06:52:52;;;;;;;0.00;0.00;;;;;;;14.83;100.00;101783.81;5113503;28;20299;-46
2023/10/10 06:55:22;;;;;;;0.00;0.00;;;;;;;14.88;100.00;101779.53;5113826;28;20466;-46
2023/10/10 06:57:58;;;;;;;0.00;0.00;;;;;;;14.87;100.00;101768.84;5113355;28;20062;-46
2023/10/10 07:00:44;;;;;;;0.00;0.00;;;;;;;14.85;100.00;101768.19;5112974;28;20028;-44
2023/10/10 07:03:11;;;;;;;0.00;0.00;;;;;;;14.90;100.00;101766.63;5112562;27;20387;-44
2023/10/10 07:05:39;;;;;;;0.00;0.00;;;;;;;14.93;100.00;101773.53;5114261;28;20526;-46
2023/10/10 07:08:19;;;;;;;0.00;0.00;;;;;;;15.02;100.00;101769.69;5111852;27;20028;-44
2023/10/10 07:10:45;;;;;;;0.00;0.00;;;;;;;15.08;100.00;101768.09;5113123;28;20061;-46
2023/10/10 07:13:14;;;;;;;0.00;0.00;;;;;;;15.07;100.00;101767.25;5108757;28;20028;-46
2023/10/10 07:15:41;;;;;;;0.00;0.00;;;;;;;15.15;100.00;101769.03;5113496;28;20464;-46
2023/10/10 07:18:22;;;;;;;0.00;0.00;;;;;;;15.20;100.00;101771.16;5112859;28;20414;-46
2023/10/10 07:23:53;;;;;;;0.00;0.00;;;;;;;15.45;100.00;101775.19;5111810;27;20402;-47
2023/10/10 07:26:20;;;;;;;0.00;0.00;;;;;;;15.48;100.00;101772.13;5093561;28;20028;-43
2023/10/10 07:28:49;;;;;;;0.00;0.00;;;;;;;15.42;100.00;101767.44;5108109;28;20042;-45
2023/10/10 07:31:17;;;;;;;0.00;0.00;;;;;;;15.54;100.00;101765.09;5113640;28;20473;-46
2023/10/10 07:33:54;;;;;;;0.00;0.00;;;;;;;15.55;100.00;101769.47;5113606;28;20415;-43
2023/10/10 07:36:24;;;;;;;0.00;0.00;;;;;;;15.57;100.00;101768.25;5112881;28;20110;-45
2023/10/10 07:38:54;;;;;;;0.00;0.00;;;;;;;15.59;100.00;101773.50;5112031;28;20505;-44
2023/10/10 07:41:21;;;;;;;0.00;0.00;;;;;;;15.75;100.00;101769.72;5113561;28;20065;-45
2023/10/10 07:43:49;;;;;;;0.00;0.00;;;;;;;15.67;100.00;101767.13;5113387;28;20031;-42
2023/10/10 07:46:19;;;;;;;0.00;0.00;;;;;;;15.83;100.00;101771.47;5113195;28;20106;-48
2023/10/10 07:48:46;;;;;;;0.00;0.00;;;;;;;15.97;100.00;101776.81;5111230;28;20035;-45
2023/10/10 07:51:16;;;;;;;0.00;0.00;;;;;;;16.26;100.00;101774.16;5113258;28;20035;-44
2023/10/10 07:53:43;;;;;;;0.00;0.00;;;;;;;16.44;100.00;101764.47;5113272;28;20350;-44
2023/10/10 07:56:08;;;;;;;0.00;0.00;;;;;;;16.48;100.00;101759.47;5111872;28;20038;-45
2023/10/10 07:58:56;;;;;;;0.00;0.00;;;;;;;16.75;100.00;101738.72;5112034;28;20023;-41
2023/10/10 08:01:23;;;;;;;0.00;0.00;;;;;;;16.82;100.00;101739.63;5111362;28;20397;-44
2023/10/10 08:03:49;;;;;;;0.00;0.00;;;;;;;17.00;100.00;101747.25;5112829;28;20023;-42
2023/10/10 08:06:17;;;;;;;0.00;0.00;;;;;;;16.99;100.00;101740.13;5112204;28;20031;-47
2023/10/10 08:08:44;;;;;;;0.00;0.00;;;;;;;17.32;100.00;101743.00;5112618;28;20031;-49
2023/10/10 08:11:12;;;;;;;0.00;0.00;;;;;;;17.46;100.00;101746.56;5110878;28;20106;-44
2023/10/10 08:13:48;;;;;;;0.00;0.00;;;;;;;17.73;100.00;101736.56;5112007;28;20032;-46
2023/10/10 08:16:19;;;;;;;0.00;0.00;;;;;;;17.89;100.00;101737.25;5112602;28;20038;-43
2023/10/10 08:21:11;;;;;;;0.00;0.00;;;;;;;17.94;100.00;101727.41;5110710;28;20053;-43
2023/10/10 08:23:42;;;;;;;0.00;0.00;;;;;;;17.99;100.00;101733.06;5112270;28;20473;-46
2023/10/10 08:26:26;;;;;;;0.00;0.00;;;;;;;18.62;100.00;101742.63;5111516;28;20035;-45
2023/10/10 08:28:52;;;;;;;0.00;0.00;;;;;;;18.95;100.00;101744.44;5109569;28;20032;-44
2023/10/10 08:31:18;;;;;;;0.00;0.00;;;;;;;18.82;100.00;101745.31;5107486;28;20070;-43
2023/10/10 08:33:47;;;;;;;0.00;0.00;;;;;;;18.99;100.00;101743.81;5090768;28;20400;-43
2023/10/10 08:36:23;;;;;;;0.00;0.00;;;;;;;19.14;100.00;101735.34;5111642;28;20039;-44
2023/10/10 08:38:51;;;;;;;0.00;0.00;;;;;;;18.90;100.00;101736.91;5126855;27;20031;-46
2023/10/10 08:41:21;;;;;;;0.00;0.00;;;;;;;18.97;100.00;101736.88;5110451;28;20569;-43
2023/10/10 08:43:53;;;;;;;0.00;0.00;;;;;;;19.16;100.00;101730.50;5111635;28;20447;-45
2023/10/10 08:46:21;;;;;;;0.00;0.00;;;;;;;19.12;100.00;101726.53;5110225;28;20076;-43
2023/10/10 08:48:47;;;;;;;0.00;0.00;;;;;;;19.05;100.00;101725.72;5094147;28;20035;-43
2023/10/10 08:51:13;;;;;;;0.00;0.00;;;;;;;18.84;100.00;101727.69;5091908;28;20027;-45
2023/10/10 08:53:38;;;;;;;0.00;0.00;;;;;;;18.94;100.00;101732.69;5112025;28;20320;-45
2023/10/10 08:56:04;;;;;;;0.00;0.00;;;;;;;18.85;100.00;101740.28;5109643;28;21281;-44
2023/10/10 08:58:31;;;;;;;0.00;0.00;;;;;;;18.83;100.00;101736.09;5108827;28;20034;-44
2023/10/10 09:01:05;;;;;;;;;;;;;;;19.05;100.00;101734.75;5111048;28;20028;-45
2023/10/10 09:03:34;;;;;;;0.00;0.00;;;;;;;19.02;100.00;101735.19;5111282;28;19920;-45
2023/10/10 09:06:13;;;;;;;0.00;0.00;;;;;;;19.22;100.00;101728.78;5111491;28;20035;-45
2023/10/10 09:08:43;;;;;;;0.00;0.00;;;;;;;19.47;100.00;101728.88;5110153;28;20039;-44
2023/10/10 09:11:11;;;;;;;0.00;0.00;;;;;;;19.50;100.00;101736.63;5110378;28;20039;-45
2023/10/10 09:13:53;;;;;;;0.00;0.00;;;;;;;19.35;100.00;101727.88;5093139;28;20488;-45
2023/10/10 09:16:41;;;;;;;0.00;0.00;;;;;;;19.07;100.00;101721.72;5111371;28;20020;-44
2023/10/10 09:19:11;;;;;;;0.00;0.00;;;;;;;19.13;100.00;101736.41;5108150;28;20805;-43
2023/10/10 09:21:50;;;;;;;0.00;0.00;;;;;;;19.12;100.00;101722.97;5091251;28;20438;-43
2023/10/10 09:24:31;;;;;;;0.00;0.00;;;;;;;19.34;100.00;101734.41;5108895;28;20023;-45
2023/10/10 09:26:58;;;;;;;0.00;0.00;;;;;;;19.77;100.00;101734.56;5110316;28;20533;-43
2023/10/10 09:29:34;;;;;;;0.00;0.00;;;;;;;19.67;100.00;101734.25;5109481;28;20114;-44
2023/10/10 09:32:00;;;;;;;0.00;0.00;;;;;;;19.71;100.00;101732.72;5111057;28;20499;-41
2023/10/10 09:34:34;;;;;;;0.00;0.00;;;;;;;19.63;100.00;101727.50;5110267;28;20070;-43
2023/10/10 09:36:59;;;;;;;0.00;0.00;;;;;;;19.53;100.00;101727.97;5111276;28;20115;-43
2023/10/10 09:39:37;;;;;;;0.00;0.00;;;;;;;19.62;100.00;101734.03;5111187;28;20403;-45
2023/10/10 09:42:27;;;;;;;0.00;0.00;;;;;;;19.66;100.00;101736.13;5111440;28;20015;-44
2023/10/10 09:47:52;;;;;;;0.00;0.00;;;;;;;19.72;100.00;101728.94;5075732;28;20042;-43
2023/10/10 09:52:50;;;;;;;0.00;0.00;;;;;;;19.66;100.00;101735.25;5121811;27;20046;-49
2023/10/10 10:00:45;;;;;;;0.00;0.00;;;;;;;19.49;100.00;101737.69;5113956;28;20032;-45
2023/10/10 10:03:31;;;;;;;0.00;0.00;;;;;;;19.56;100.00;101738.47;5108054;28;20569;-45
2023/10/10 10:09:18;;;;;;;0.00;0.00;;;;;;;19.99;100.00;101720.56;5111194;28;20040;-48
2023/10/10 10:11:59;;;;;;;0.00;0.00;;;;;;;19.83;100.00;101722.78;5092842;28;20549;-44
2023/10/10 10:14:39;;;;;;;0.00;0.00;;;;;;;19.52;100.00;101727.16;5110895;28;20032;-44
2023/10/10 10:17:18;;;;;;;0.00;0.00;;;;;;;19.57;100.00;101725.66;5092420;28;20031;-42
2023/10/10 10:19:45;;;;;;;0.00;0.00;;;;;;;19.67;100.00;101726.06;5093536;28;20035;-44
2023/10/10 10:22:17;;;;;;;0.00;0.00;;;;;;;19.61;100.00;101726.88;5110638;28;20045;-47
2023/10/10 10:24:48;;;;;;;0.00;0.00;;;;;;;19.63;100.00;101724.78;5110785;28;20474;-43
2023/10/10 10:27:39;;;;;;;0.00;0.00;;;;;;;19.76;100.00;101723.88;5110243;28;20059;-43
2023/10/10 10:32:44;;;;;;;0.00;0.00;;;;;;;19.83;100.00;101733.69;5107699;28;20517;-43
2023/10/10 10:35:15;;;;;;;0.00;0.00;;;;;;;19.75;100.00;101725.78;5106878;28;20035;-44
2023/10/10 10:37:42;;;;;;;0.00;0.00;;;;;;;19.73;100.00;101731.44;5108779;28;20028;-43
2023/10/10 10:42:46;;;;;;;0.00;0.00;;;;;;;19.84;100.00;101720.88;5110177;28;20036;-44
2023/10/10 10:45:34;;;;;;;0.00;0.00;;;;;;;20.12;100.00;101734.09;5096131;28;20039;-45
2023/10/10 10:48:05;;;;;;;0.00;0.00;;;;;;;20.25;100.00;101733.97;5113047;28;20035;-43
2023/10/10 10:50:42;;;;;;;0.00;0.00;;;;;;;20.44;100.00;101734.00;5114733;28;20024;-43
2023/10/10 11:01:23;;;;;;;0.00;0.00;;;;;;;20.39;100.00;101724.56;5112783;28;20398;-42
2023/10/10 11:03:51;;;;;;;0.00;0.00;;;;;;;20.49;100.00;101718.59;5114641;28;20096;-44
2023/10/10 11:06:20;;;;;;;0.00;0.00;;;;;;;20.48;100.00;101718.81;5114119;28;20053;-42
2023/10/10 11:11:36;;;;;;;0.00;0.00;;;;;;;20.31;100.00;101705.72;5114089;28;20039;-40
2023/10/10 11:14:18;;;;;;;0.00;0.00;;;;;;;20.32;100.00;101696.44;5114040;28;20105;-42
2023/10/10 11:16:56;;;;;;;0.00;0.00;;;;;;;20.25;100.00;101690.25;5112157;28;20054;-42
2023/10/10 11:21:48;;;;;;;0.00;0.00;;;;;;;20.54;100.00;101685.13;5113805;27;20039;-45
2023/10/10 11:24:25;;;;;;;0.00;0.00;;;;;;;20.69;100.00;101680.09;5119073;27;20062;-43
2023/10/10 11:30:08;;;;;;;0.00;0.00;;;;;;;20.72;100.00;101668.72;5122141;27;20561;-42
2023/10/10 11:32:46;;;;;;;0.00;0.00;;;;;;;20.94;100.00;101660.00;5127173;27;20109;-48
2023/10/10 11:35:22;;;;;;;0.00;0.00;;;;;;;21.34;100.00;101654.78;5111782;28;20032;-43
2023/10/10 11:37:49;;;;;;;0.00;0.00;;;;;;;21.69;100.00;101646.66;5111122;27;20027;-43
2023/10/10 11:42:55;;;;;;;0.00;0.00;;;;;;;22.27;100.00;101646.94;5113093;28;20541;-42
2023/10/10 11:45:25;;;;;;;0.00;0.00;;;;;;;22.46;100.00;101648.47;5112011;28;20115;-43
2023/10/10 11:47:51;;;;;;;0.00;0.00;;;;;;;22.69;100.00;101646.72;5112011;28;20027;-44
2023/10/10 11:50:17;;;;;;;0.00;0.00;;;;;;;22.83;100.00;101639.91;5113093;27;20386;-45
2023/10/10 11:52:50;;;;;;;0.00;0.00;;;;;;;23.37;100.00;101651.34;5112010;28;20254;-45
2023/10/10 11:55:20;;;;;;;0.00;0.00;;;;;;;23.47;100.00;101649.88;5109428;28;20043;-43
2023/10/10 11:57:46;;;;;;;0.00;0.00;;;;;;;23.77;100.00;101644.91;5112044;27;20052;-44
2023/10/10 12:00:13;;;;;;;0.00;0.00;;;;;;;23.75;100.00;101651.72;5111423;27;20028;-44
2023/10/10 12:02:41;;;;;;;0.00;0.00;;;;;;;23.60;100.00;101649.56;5111882;28;20079;-43
2023/10/10 12:05:36;;;;;;;0.00;0.00;;;;;;;23.32;100.00;101642.19;5112859;27;20031;-44
2023/10/10 12:08:05;;;;;;;0.00;0.00;;;;;;;22.90;100.00;101635.06;5110912;28;20027;-42
2023/10/10 12:10:52;;;;;;;0.00;0.00;;;;;;;22.78;100.00;101637.06;5111859;28;20028;-42
2023/10/10 12:15:55;;;;;;;;;;;;;;;22.70;100.00;101629.22;5100864;27;20436;-44
2023/10/10 12:18:20;;;;;;;0.00;0.00;;;;;;;23.16;100.00;101628.19;5108195;28;19957;-45
2023/10/10 12:20:46;;;;;;;0.00;0.00;;;;;;;23.47;100.00;101623.22;5115539;27;20028;-46
2023/10/10 12:23:11;;;;;;;0.00;0.00;;;;;;;23.57;100.00;101628.06;5113663;28;20070;-42
2023/10/10 12:25:40;;;;;;;0.00;0.00;;;;;;;23.55;100.00;101624.72;5113485;28;20024;-44
2023/10/10 12:28:18;;;;;;;0.00;0.00;;;;;;;23.60;100.00;101625.66;5113480;28;20115;-46
2023/10/10 12:30:44;;;;;;;0.00;0.00;;;;;;;23.51;100.00;101618.88;5112620;28;20039;-42
2023/10/10 12:33:12;;;;;;;0.00;0.00;;;;;;;23.64;100.00;101624.06;5112294;28;20030;-43
2023/10/10 12:35:46;;;;;;;0.00;0.00;;;;;;;23.69;100.00;101619.72;5111836;28;20111;-43
2023/10/10 12:38:21;;;;;;;0.00;0.00;;;;;;;24.03;100.00;101609.53;5111754;28;20405;-44
2023/10/10 12:40:48;;;;;;;0.00;0.00;;;;;;;24.72;100.00;101618.19;5112072;28;20036;-43
2023/10/10 12:43:13;;;;;;;0.00;0.00;;;;;;;24.65;100.00;101612.03;5111485;28;20110;-44
2023/10/10 12:45:38;;;;;;;0.00;0.00;;;;;;;24.70;100.00;101608.53;5111387;28;20103;-43
2023/10/10 12:48:13;;;;;;;0.00;0.00;;;;;;;24.90;100.00;101603.22;5111907;28;20067;-43
2023/10/10 12:50:39;;;;;;;0.00;0.00;;;;;;;24.42;100.00;101610.34;5112032;28;20077;-43
2023/10/10 12:53:15;;;;;;;0.00;0.00;;;;;;;24.55;100.00;101620.16;5111802;28;20027;-45
2023/10/10 12:55:51;;;;;;;0.00;0.00;;;;;;;24.72;100.00;101620.09;5112327;28;20389;-44
2023/10/10 12:58:24;;;;;;;0.00;0.00;;;;;;;24.57;100.00;101612.50;5093609;28;20042;-43
2023/10/10 13:00:50;;;;;;;0.00;0.00;;;;;;;24.42;100.00;101609.53;5112026;28;20038;-45
2023/10/10 13:03:30;;;;;;;0.00;0.00;;;;;;;24.84;100.00;101611.69;5112548;27;20044;-46
2023/10/10 13:06:02;;;;;;;0.00;0.00;;;;;;;24.80;100.00;101600.34;5111521;28;20043;-44
2023/10/10 13:08:38;;;;;;;0.00;0.00;;;;;;;24.97;100.00;101603.03;5109490;28;20088;-42
2023/10/10 13:11:14;;;;;;;0.00;0.00;;;;;;;24.68;100.00;101611.53;5111221;28;20027;-45
2023/10/10 13:13:48;;;;;;;0.00;0.00;;;;;;;24.91;100.00;101609.56;5108784;27;20512;-46
2023/10/10 13:16:27;;;;;;;0.00;0.00;;;;;;;25.14;100.00;101602.91;5108982;28;20031;-42
2023/10/10 13:18:55;;;;;;;0.00;0.00;;;;;;;25.47;99.68;101596.34;5110452;28;20035;-44
2023/10/10 13:21:20;;;;;;;0.00;0.00;;;;;;;26.05;98.49;101600.06;5092651;28;20032;-43
2023/10/10 13:23:50;;;;;;;0.00;0.00;;;;;;;25.81;95.16;101609.81;5104483;28;20024;-46
2023/10/10 13:26:16;;;;;;;0.00;0.00;;;;;;;25.89;96.80;101603.00;5121557;27;20243;-44
2023/10/10 13:28:44;;;;;;;0.00;0.00;;;;;;;25.27;100.00;101601.66;5111581;28;20035;-44
2023/10/10 13:31:13;;;;;;;0.00;0.00;;;;;;;24.93;100.00;101601.88;5111141;28;20149;-45
2023/10/10 13:33:39;;;;;;;0.00;0.00;;;;;;;24.50;100.00;101604.41;5111222;28;20024;-43
2023/10/10 13:36:05;;;;;;;0.00;0.00;;;;;;;23.93;100.00;101604.72;5111037;28;20028;-43
2023/10/10 13:38:31;;;;;;;0.00;0.00;;;;;;;23.68;100.00;101594.16;5092800;28;20527;-44
2023/10/10 13:41:01;;;;;;;0.00;0.00;;;;;;;23.12;100.00;101598.75;5125919;27;20280;-43
2023/10/10 13:43:26;;;;;;;0.00;0.00;;;;;;;23.31;100.00;101597.41;5113473;27;20080;-42
2023/10/10 13:45:52;;;;;;;0.00;0.00;;;;;;;23.66;100.00;101594.41;5111412;28;20023;-47
2023/10/10 13:48:23;;;;;;;0.00;0.00;;;;;;;23.86;100.00;101596.66;5110917;28;20424;-46
2023/10/10 13:50:51;;;;;;;0.00;0.00;;;;;;;23.84;100.00;101585.09;5131576;27;20019;-44
2023/10/10 13:53:17;;;;;;;0.00;0.00;;;;;;;23.88;100.00;101601.91;5131705;27;20027;-45
2023/10/10 13:55:43;;;;;;;0.00;0.00;;;;;;;24.08;100.00;101590.38;5121307;27;20028;-44
2023/10/10 13:58:11;;;;;;;0.00;0.00;;;;;;;23.81;100.00;101577.34;5110690;28;20028;-46
2023/10/10 14:00:42;;;;;;;0.00;0.00;;;;;;;23.92;100.00;101583.81;5111271;28;20051;-46
2023/10/10 14:03:08;;;;;;;0.00;0.00;;;;;;;23.98;100.00;101584.72;5110869;28;20501;-43
2023/10/10 14:05:36;;;;;;;0.00;0.00;;;;;;;24.39;98.54;101579.78;5110627;28;20027;-45
2023/10/10 14:08:17;;;;;;;0.00;0.00;;;;;;;24.23;96.83;101574.06;5110595;28;20052;-46
2023/10/10 14:10:43;;;;;;;0.00;0.00;;;;;;;24.33;93.33;101570.63;5110863;28;20031;-44
2023/10/10 14:13:26;;;;;;;0.00;0.00;;;;;;;24.40;93.67;101570.41;5110844;28;20031;-47
2023/10/10 14:15:55;;;;;;;0.00;0.00;;;;;;;24.75;93.04;101567.28;5111219;28;20032;-42
2023/10/10 14:18:31;;;;;;;0.00;0.00;;;;;;;24.90;92.99;101569.34;5110554;28;20423;-45
2023/10/10 14:21:01;;;;;;;0.00;0.00;;;;;;;24.52;91.45;101560.97;5114970;28;20031;-44
2023/10/10 14:23:27;;;;;;;0.00;0.00;;;;;;;24.42;91.54;101565.50;5133158;27;20034;-44
2023/10/10 14:26:12;;;;;;;0.00;0.00;;;;;;;24.73;94.30;101556.53;5130650;27;20480;-43
2023/10/10 14:28:38;;;;;;;0.00;0.00;;;;;;;25.01;93.49;101551.81;5096763;27;20147;-44
2023/10/10 14:31:03;;;;;;;0.00;0.00;;;;;;;24.97;89.47;101543.25;5115910;27;20473;-44
2023/10/10 14:33:29;;;;;;;0.00;0.00;;;;;;;24.98;91.09;101524.81;5114392;28;20015;-44